createdAt,value
2017-12-31T00:02:17.759Z,90.80
2017-12-31T00:04:44.094Z,90.80
2017-12-31T00:07:10.707Z,90.80
2017-12-31T00:09:36.936Z,90.80
2017-12-31T00:12:03.222Z,90.60
2017-12-31T00:14:29.466Z,90.70
2017-12-31T00:16:56.955Z,90.70
2017-12-31T00:19:23.857Z,90.60
2017-12-31T00:21:50.177Z,90.20
2017-12-31T00:24:16.559Z,89.60
2017-12-31T00:26:42.808Z,89.50
2017-12-31T00:29:09.940Z,89.60
2017-12-31T00:31:36.211Z,89.60
2017-12-31T00:34:02.495Z,89.50
2017-12-31T00:36:29.113Z,89.10
2017-12-31T00:38:55.393Z,88.60
2017-12-31T00:41:21.636Z,88.80
2017-12-31T00:43:47.863Z,88.80
2017-12-31T00:46:14.403Z,87.90
2017-12-31T00:48:41.584Z,87.70
2017-12-31T00:51:07.792Z,88.00
2017-12-31T00:53:34.660Z,87.60
2017-12-31T00:56:00.902Z,87.70
2017-12-31T00:58:27.142Z,87.40
2017-12-31T01:00:53.759Z,87.10
2017-12-31T01:03:20.079Z,87.10
2017-12-31T01:05:46.307Z,87.10
2017-12-31T01:08:13.562Z,87.00
2017-12-31T01:10:39.992Z,87.10
2017-12-31T01:13:06.280Z,86.50
2017-12-31T01:15:32.495Z,86.60
2017-12-31T01:17:58.970Z,86.40
2017-12-31T01:20:25.203Z,86.20
2017-12-31T01:22:51.473Z,86.20
2017-12-31T01:25:17.720Z,86.10
2017-12-31T01:27:44.806Z,86.30
2017-12-31T01:30:11.056Z,86.50
2017-12-31T01:32:37.286Z,86.50
2017-12-31T01:35:03.561Z,86.90
2017-12-31T01:37:29.812Z,86.40
2017-12-31T01:39:56.078Z,86.50
2017-12-31T01:42:22.361Z,87.00
2017-12-31T01:44:48.618Z,86.70
2017-12-31T01:47:14.816Z,86.80
2017-12-31T01:49:41.089Z,87.00
2017-12-31T01:52:07.347Z,87.10
2017-12-31T01:54:33.594Z,87.00
2017-12-31T01:56:59.835Z,86.80
2017-12-31T01:59:26.098Z,86.40
2017-12-31T02:01:52.331Z,86.50
2017-12-31T02:04:18.547Z,86.00
2017-12-31T02:06:44.800Z,86.10
2017-12-31T02:09:11.391Z,86.40
2017-12-31T02:11:37.667Z,86.40
2017-12-31T02:14:03.916Z,86.30
2017-12-31T02:16:30.121Z,86.10
2017-12-31T02:18:56.721Z,85.90
2017-12-31T02:21:22.976Z,85.90
2017-12-31T02:23:49.227Z,86.10
2017-12-31T02:26:15.478Z,86.20
2017-12-31T02:28:41.746Z,86.30
2017-12-31T02:31:08.357Z,86.00
2017-12-31T02:33:34.574Z,85.90
2017-12-31T02:36:00.799Z,86.10
2017-12-31T02:38:27.053Z,86.60
2017-12-31T02:40:53.273Z,86.40
2017-12-31T02:43:19.508Z,86.20
2017-12-31T02:45:45.739Z,85.80
2017-12-31T02:48:11.965Z,86.10
2017-12-31T02:50:38.193Z,86.10
2017-12-31T02:53:04.482Z,86.40
2017-12-31T02:55:30.721Z,86.40
2017-12-31T02:57:56.924Z,86.70
2017-12-31T03:00:24.445Z,86.70
2017-12-31T03:02:50.661Z,86.80
2017-12-31T03:05:16.901Z,86.60
2017-12-31T03:07:43.117Z,86.40
2017-12-31T03:10:09.343Z,86.20
2017-12-31T03:12:35.580Z,85.90
2017-12-31T03:15:01.789Z,86.50
2017-12-31T03:17:28.022Z,86.70
2017-12-31T03:19:54.905Z,86.50
2017-12-31T03:22:21.136Z,86.50
2017-12-31T03:24:47.378Z,86.40
2017-12-31T03:27:13.632Z,86.40
2017-12-31T03:29:39.869Z,86.50
2017-12-31T03:32:06.140Z,86.20
2017-12-31T03:34:32.412Z,85.80
2017-12-31T03:36:58.636Z,85.60
2017-12-31T03:39:24.864Z,85.80
2017-12-31T03:41:51.102Z,85.90
2017-12-31T03:44:17.337Z,85.70
2017-12-31T03:46:43.586Z,85.60
2017-12-31T03:49:09.800Z,85.50
2017-12-31T03:51:36.026Z,85.60
2017-12-31T03:54:02.249Z,85.60
2017-12-31T03:56:28.499Z,85.40
2017-12-31T03:58:54.698Z,85.50
2017-12-31T04:01:20.908Z,85.30
2017-12-31T04:03:47.140Z,85.60
2017-12-31T04:06:13.381Z,85.80
2017-12-31T04:08:39.587Z,86.10
2017-12-31T04:11:06.183Z,86.10
2017-12-31T04:13:32.431Z,86.10
2017-12-31T04:15:58.654Z,86.00
2017-12-31T04:18:24.893Z,85.90
2017-12-31T04:20:51.470Z,85.80
2017-12-31T04:23:17.719Z,85.80
2017-12-31T04:25:43.935Z,86.00
2017-12-31T04:28:10.153Z,86.10
2017-12-31T04:30:36.404Z,86.60
2017-12-31T04:33:02.658Z,86.80
2017-12-31T04:35:28.886Z,86.90
2017-12-31T04:37:55.094Z,86.80
2017-12-31T04:40:22.293Z,86.90
2017-12-31T04:42:48.546Z,87.30
2017-12-31T04:45:15.350Z,87.00
2017-12-31T04:47:41.958Z,87.10
2017-12-31T04:50:08.194Z,87.10
2017-12-31T04:52:34.460Z,86.70
2017-12-31T04:55:00.658Z,86.20
2017-12-31T04:57:26.932Z,85.50
2017-12-31T04:59:53.972Z,86.30
2017-12-31T05:02:20.167Z,86.30
2017-12-31T05:04:46.782Z,85.70
2017-12-31T05:07:12.989Z,85.70
2017-12-31T05:09:39.253Z,85.40
2017-12-31T05:12:05.531Z,85.50
2017-12-31T05:14:31.769Z,85.50
2017-12-31T05:16:58.672Z,86.10
2017-12-31T05:19:24.919Z,86.00
2017-12-31T05:21:51.189Z,86.10
2017-12-31T05:24:17.406Z,85.80
2017-12-31T05:26:43.616Z,85.70
2017-12-31T05:29:09.866Z,85.30
2017-12-31T05:31:36.146Z,85.10
2017-12-31T05:34:02.762Z,84.80
2017-12-31T05:36:29.394Z,84.60
2017-12-31T05:38:55.610Z,84.60
2017-12-31T05:41:21.803Z,84.10
2017-12-31T05:43:48.021Z,83.80
2017-12-31T05:46:14.268Z,83.40
2017-12-31T05:48:40.513Z,83.40
2017-12-31T05:51:06.719Z,83.50
2017-12-31T05:53:32.974Z,83.40
2017-12-31T05:55:59.182Z,82.90
2017-12-31T05:58:25.395Z,83.00
2017-12-31T06:00:51.641Z,82.40
2017-12-31T06:03:17.854Z,82.60
2017-12-31T06:05:44.082Z,82.40
2017-12-31T06:08:10.342Z,82.30
2017-12-31T06:10:39.598Z,82.30
2017-12-31T06:15:37.093Z,81.90
2017-12-31T06:18:05.764Z,82.00
2017-12-31T06:20:31.984Z,81.80
2017-12-31T06:22:58.268Z,81.50
2017-12-31T06:25:24.484Z,81.50
2017-12-31T06:27:50.760Z,81.70
2017-12-31T06:30:16.986Z,81.90
2017-12-31T06:32:43.600Z,80.90
2017-12-31T06:35:09.829Z,80.90
2017-12-31T06:37:36.097Z,80.80
2017-12-31T06:40:02.383Z,80.70
2017-12-31T06:42:28.627Z,81.30
2017-12-31T06:44:55.261Z,81.20
2017-12-31T06:47:21.877Z,81.50
2017-12-31T06:49:48.094Z,81.50
2017-12-31T06:52:14.348Z,81.90
2017-12-31T06:54:40.613Z,81.20
2017-12-31T06:57:06.853Z,80.80
2017-12-31T06:59:33.354Z,80.90
2017-12-31T07:01:59.588Z,81.10
2017-12-31T07:04:25.805Z,80.80
2017-12-31T07:06:52.071Z,80.70
2017-12-31T07:09:18.265Z,80.10
2017-12-31T07:11:44.535Z,80.10
2017-12-31T07:14:10.781Z,79.70
2017-12-31T07:16:37.064Z,79.40
2017-12-31T07:19:03.271Z,79.60
2017-12-31T07:21:29.879Z,79.10
2017-12-31T07:23:56.139Z,79.10
2017-12-31T07:26:22.705Z,79.70
2017-12-31T07:28:49.004Z,79.70
2017-12-31T07:31:15.654Z,79.50
2017-12-31T07:33:42.316Z,79.10
2017-12-31T07:36:08.550Z,79.10
2017-12-31T07:38:34.794Z,79.20
2017-12-31T07:41:01.027Z,78.80
2017-12-31T07:43:27.263Z,78.90
2017-12-31T07:45:53.531Z,78.80
2017-12-31T07:48:19.752Z,78.80
2017-12-31T07:50:46.010Z,78.50
2017-12-31T07:53:12.236Z,78.50
2017-12-31T07:55:38.495Z,78.20
2017-12-31T07:58:04.769Z,78.00
2017-12-31T08:00:31.368Z,78.00
2017-12-31T08:02:57.663Z,78.00
2017-12-31T08:05:23.891Z,77.50
2017-12-31T08:07:50.119Z,77.40
2017-12-31T08:10:16.398Z,77.40
2017-12-31T08:12:42.686Z,77.30
2017-12-31T08:15:08.972Z,77.40
2017-12-31T08:17:35.588Z,77.10
2017-12-31T08:20:02.233Z,77.10
2017-12-31T08:22:28.466Z,77.30
2017-12-31T08:24:54.681Z,76.70
2017-12-31T08:27:20.953Z,76.40
2017-12-31T08:29:47.243Z,76.60
2017-12-31T08:32:13.518Z,76.80
2017-12-31T08:34:39.802Z,76.20
2017-12-31T08:37:06.057Z,76.40
2017-12-31T08:39:32.696Z,76.20
2017-12-31T08:41:59.316Z,75.00
2017-12-31T08:44:25.565Z,75.00
2017-12-31T08:46:52.323Z,75.30
2017-12-31T08:49:18.608Z,75.30
2017-12-31T08:51:44.871Z,75.60
2017-12-31T08:54:11.129Z,75.90
2017-12-31T08:56:37.391Z,75.70
2017-12-31T08:59:03.657Z,75.60
2017-12-31T09:01:29.963Z,75.30
2017-12-31T09:03:56.626Z,74.60
2017-12-31T09:06:22.942Z,74.60
2017-12-31T09:08:49.571Z,75.20
2017-12-31T09:11:15.823Z,75.20
2017-12-31T09:13:42.103Z,74.90
2017-12-31T09:16:08.420Z,75.00
2017-12-31T09:18:34.641Z,75.20
2017-12-31T09:21:00.898Z,74.90
2017-12-31T09:23:27.154Z,74.70
2017-12-31T09:25:53.423Z,75.20
2017-12-31T09:28:19.716Z,74.80
2017-12-31T09:30:46.020Z,74.90
2017-12-31T09:33:12.322Z,74.50
2017-12-31T09:35:38.580Z,74.50
2017-12-31T09:38:04.882Z,73.90
2017-12-31T09:40:31.123Z,73.50
2017-12-31T09:42:57.384Z,73.80
2017-12-31T09:45:24.036Z,73.80
2017-12-31T09:47:50.338Z,73.90
2017-12-31T09:50:16.975Z,73.90
2017-12-31T09:52:43.276Z,73.90
2017-12-31T09:55:09.577Z,73.40
2017-12-31T09:57:35.836Z,73.60
2017-12-31T10:00:02.187Z,73.70
2017-12-31T10:02:28.513Z,73.40
2017-12-31T10:04:54.803Z,73.10
2017-12-31T10:07:21.040Z,72.30
2017-12-31T10:09:47.343Z,72.30
2017-12-31T10:12:13.640Z,72.20
2017-12-31T10:14:39.922Z,72.30
2017-12-31T10:17:07.636Z,72.10
2017-12-31T10:19:34.276Z,71.20
2017-12-31T10:22:00.982Z,71.70
2017-12-31T10:24:27.284Z,71.80
2017-12-31T10:26:53.621Z,72.30
2017-12-31T10:29:19.900Z,72.50
2017-12-31T10:31:46.190Z,71.60
2017-12-31T10:34:12.510Z,71.70
2017-12-31T10:36:38.856Z,71.30
2017-12-31T10:39:05.161Z,70.60
2017-12-31T10:41:31.421Z,71.10
2017-12-31T10:43:57.723Z,71.50
2017-12-31T10:46:23.981Z,71.20
2017-12-31T10:48:50.308Z,71.30
2017-12-31T10:51:16.615Z,71.80
2017-12-31T10:53:42.893Z,71.90
2017-12-31T10:56:09.222Z,71.90
2017-12-31T10:58:35.618Z,71.70
2017-12-31T11:01:01.963Z,71.90
2017-12-31T11:03:28.231Z,71.90
2017-12-31T11:05:54.907Z,71.70
2017-12-31T11:08:21.200Z,71.70
2017-12-31T11:10:47.834Z,70.60
2017-12-31T11:13:14.471Z,69.90
2017-12-31T11:15:41.169Z,68.60
2017-12-31T11:18:07.474Z,68.60
2017-12-31T11:20:33.779Z,67.20
2017-12-31T11:23:00.081Z,66.30
2017-12-31T11:25:26.403Z,65.70
2017-12-31T11:27:52.795Z,65.70
2017-12-31T11:30:19.068Z,66.80
2017-12-31T11:32:45.324Z,67.40
2017-12-31T11:35:12.502Z,67.50
2017-12-31T11:37:38.760Z,67.50
2017-12-31T11:40:05.033Z,68.10
2017-12-31T11:42:31.332Z,68.30
2017-12-31T11:44:57.711Z,68.20
2017-12-31T11:47:23.970Z,67.50
2017-12-31T11:49:50.246Z,67.90
2017-12-31T11:52:16.626Z,68.30
2017-12-31T11:54:42.945Z,67.20
2017-12-31T11:57:09.278Z,67.20
2017-12-31T11:59:35.539Z,67.70
2017-12-31T12:02:01.877Z,67.40
2017-12-31T12:04:28.171Z,66.40
2017-12-31T12:06:54.471Z,66.00
2017-12-31T12:09:22.001Z,66.00
2017-12-31T12:11:48.678Z,64.40
2017-12-31T12:14:15.010Z,63.20
2017-12-31T12:16:41.312Z,61.50
2017-12-31T12:19:07.608Z,62.10
2017-12-31T12:21:33.941Z,62.30
2017-12-31T12:24:00.235Z,62.60
2017-12-31T12:26:26.548Z,62.20
2017-12-31T12:28:53.193Z,60.70
2017-12-31T12:31:19.535Z,60.70
2017-12-31T12:33:45.832Z,60.70
2017-12-31T12:36:12.488Z,59.20
2017-12-31T12:38:38.812Z,59.20
2017-12-31T12:41:05.132Z,56.70
2017-12-31T12:43:31.810Z,58.90
2017-12-31T12:45:58.070Z,58.90
2017-12-31T12:48:24.357Z,59.60
2017-12-31T12:50:50.662Z,60.00
2017-12-31T12:53:17.310Z,60.80
2017-12-31T12:55:43.658Z,60.80
2017-12-31T12:58:09.906Z,62.50
2017-12-31T13:00:36.207Z,62.10
2017-12-31T13:03:02.518Z,61.70
2017-12-31T13:05:28.852Z,61.60
2017-12-31T13:07:55.464Z,62.80
2017-12-31T13:10:21.695Z,62.80
2017-12-31T13:12:48.792Z,62.10
2017-12-31T13:15:15.071Z,62.40
2017-12-31T13:17:41.348Z,62.80
2017-12-31T13:20:07.586Z,62.50
2017-12-31T13:22:33.867Z,60.70
2017-12-31T13:25:00.145Z,60.50
2017-12-31T13:27:26.419Z,61.20
2017-12-31T13:29:52.710Z,61.00
2017-12-31T13:32:19.839Z,59.80
2017-12-31T13:34:46.070Z,57.60
2017-12-31T13:37:12.390Z,57.00
2017-12-31T13:39:38.755Z,55.50
2017-12-31T13:42:05.097Z,55.20
2017-12-31T13:44:31.328Z,53.90
2017-12-31T13:46:57.643Z,52.00
2017-12-31T13:49:23.897Z,53.10
2017-12-31T13:51:50.159Z,54.40
2017-12-31T13:54:18.028Z,55.70
2017-12-31T13:56:44.281Z,57.20
2017-12-31T13:59:10.550Z,58.60
2017-12-31T14:01:37.510Z,58.20
2017-12-31T14:04:04.804Z,57.50
2017-12-31T14:06:31.063Z,58.20
2017-12-31T14:08:57.300Z,58.40
2017-12-31T14:11:23.839Z,58.50
2017-12-31T14:13:50.048Z,58.40
2017-12-31T14:16:16.349Z,59.60
2017-12-31T14:18:42.649Z,59.90
2017-12-31T14:21:09.294Z,60.10
2017-12-31T14:23:35.904Z,59.60
2017-12-31T14:26:02.161Z,59.60
2017-12-31T14:28:28.809Z,58.70
2017-12-31T14:30:55.077Z,58.70
2017-12-31T14:33:21.402Z,58.80
2017-12-31T14:35:47.758Z,59.90
2017-12-31T14:38:14.056Z,60.00
2017-12-31T14:40:40.375Z,60.40
2017-12-31T14:43:06.632Z,60.50
2017-12-31T14:45:33.068Z,61.00
2017-12-31T14:47:59.319Z,61.50
2017-12-31T14:50:26.052Z,62.10
2017-12-31T14:52:52.313Z,62.10
2017-12-31T14:55:18.567Z,62.50
2017-12-31T14:57:44.857Z,62.90
2017-12-31T15:00:11.219Z,63.50
2017-12-31T15:02:37.672Z,63.80
2017-12-31T15:05:03.976Z,63.90
2017-12-31T15:07:30.256Z,63.90
2017-12-31T15:09:56.512Z,64.20
2017-12-31T15:12:23.182Z,65.20
2017-12-31T15:14:49.468Z,65.20
2017-12-31T15:17:15.741Z,65.40
2017-12-31T15:19:42.024Z,65.50
2017-12-31T15:22:08.271Z,65.80
2017-12-31T15:24:34.903Z,65.80
2017-12-31T15:27:01.550Z,65.60
2017-12-31T15:29:27.832Z,65.60
2017-12-31T15:31:54.107Z,65.70
2017-12-31T15:34:20.366Z,66.40
2017-12-31T15:36:46.630Z,66.60
2017-12-31T15:39:12.883Z,66.90
2017-12-31T15:41:39.565Z,67.30
2017-12-31T15:44:05.818Z,67.20
2017-12-31T15:46:32.072Z,67.50
2017-12-31T15:48:58.346Z,68.00
2017-12-31T15:51:24.610Z,67.90
2017-12-31T15:53:51.491Z,68.10
2017-12-31T15:56:18.167Z,68.00
2017-12-31T15:58:44.459Z,68.00
2017-12-31T16:01:10.751Z,68.40
2017-12-31T16:03:36.993Z,68.00
2017-12-31T16:06:03.296Z,68.20
2017-12-31T16:08:30.453Z,67.50
2017-12-31T16:10:56.747Z,67.90
2017-12-31T16:13:23.056Z,67.60
2017-12-31T16:15:49.953Z,67.80
2017-12-31T16:18:21.097Z,68.20
2017-12-31T16:20:47.385Z,68.30
2017-12-31T16:23:13.668Z,68.60
2017-12-31T16:25:39.941Z,69.00
2017-12-31T16:28:06.222Z,68.70
2017-12-31T16:30:32.506Z,68.70
2017-12-31T16:32:58.836Z,68.70
2017-12-31T16:35:25.115Z,69.20
2017-12-31T16:37:51.340Z,70.10
2017-12-31T16:40:17.632Z,69.80
2017-12-31T16:42:43.883Z,69.80
2017-12-31T16:45:11.139Z,70.60
2017-12-31T16:47:37.415Z,70.60
2017-12-31T16:50:03.745Z,70.50
2017-12-31T16:52:30.006Z,70.80
2017-12-31T16:54:56.253Z,71.20
2017-12-31T16:57:22.598Z,71.60
2017-12-31T16:59:48.876Z,71.80
2017-12-31T17:02:15.151Z,72.00
2017-12-31T17:04:41.444Z,72.20
2017-12-31T17:07:07.709Z,72.20
2017-12-31T17:09:34.023Z,72.50
2017-12-31T17:12:00.294Z,72.60
2017-12-31T17:14:26.944Z,73.10
2017-12-31T17:16:53.541Z,73.00
2017-12-31T17:19:19.886Z,73.00
2017-12-31T17:21:46.135Z,73.40
2017-12-31T17:24:12.435Z,73.50
2017-12-31T17:26:38.838Z,73.80
2017-12-31T17:29:05.091Z,74.00
2017-12-31T17:31:31.391Z,73.90
2017-12-31T17:33:57.656Z,74.00
2017-12-31T17:36:23.913Z,74.20
2017-12-31T17:38:50.157Z,74.30
2017-12-31T17:41:16.427Z,74.20
2017-12-31T17:43:42.696Z,74.10
2017-12-31T17:46:09.350Z,74.70
2017-12-31T17:48:35.624Z,74.70
2017-12-31T17:51:01.926Z,74.90
2017-12-31T17:53:28.210Z,75.10
2017-12-31T17:55:55.041Z,75.40
2017-12-31T17:58:21.331Z,75.50
2017-12-31T18:00:47.594Z,75.80
2017-12-31T18:03:14.559Z,76.00
2017-12-31T18:05:40.865Z,76.30
2017-12-31T18:08:07.124Z,76.40
2017-12-31T18:10:33.767Z,77.50
2017-12-31T18:13:00.418Z,77.10
2017-12-31T18:15:26.654Z,77.10
2017-12-31T18:17:52.949Z,77.20
2017-12-31T18:20:19.280Z,77.00
2017-12-31T18:22:45.927Z,76.90
2017-12-31T18:25:12.586Z,77.20
2017-12-31T18:27:38.825Z,77.20
2017-12-31T18:30:05.068Z,77.40
2017-12-31T18:32:31.386Z,77.40
2017-12-31T18:34:57.672Z,78.80
2017-12-31T18:37:23.946Z,79.60
2017-12-31T18:39:50.245Z,79.10
2017-12-31T18:42:16.509Z,79.00
2017-12-31T18:44:42.742Z,78.50
2017-12-31T18:47:08.974Z,78.40
2017-12-31T18:49:35.244Z,77.90
2017-12-31T18:52:01.514Z,77.70
2017-12-31T18:54:27.764Z,77.70
2017-12-31T18:56:53.980Z,77.50
2017-12-31T18:59:20.256Z,77.50
2017-12-31T19:01:46.500Z,77.90
2017-12-31T19:04:12.706Z,78.20
2017-12-31T19:06:38.953Z,77.80
2017-12-31T19:09:05.235Z,78.10
2017-12-31T19:11:31.502Z,77.50
2017-12-31T19:13:58.167Z,76.70
2017-12-31T19:16:24.457Z,76.80
2017-12-31T19:18:50.736Z,76.90
2017-12-31T19:21:17.045Z,76.80
2017-12-31T19:23:43.658Z,76.30
2017-12-31T19:26:09.866Z,76.30
2017-12-31T19:28:36.099Z,76.60
2017-12-31T19:31:02.351Z,76.10
2017-12-31T19:33:28.924Z,77.10
2017-12-31T19:35:55.161Z,77.10
2017-12-31T19:38:21.410Z,77.10
2017-12-31T19:40:47.675Z,76.50
2017-12-31T19:43:14.291Z,76.60
2017-12-31T19:45:41.501Z,76.50
2017-12-31T19:48:08.096Z,77.30
2017-12-31T19:50:34.343Z,77.30
2017-12-31T19:53:01.581Z,77.40
2017-12-31T19:55:27.834Z,77.80
2017-12-31T19:57:54.077Z,78.20
2017-12-31T20:00:20.386Z,78.50
2017-12-31T20:02:46.607Z,78.20
2017-12-31T20:05:13.227Z,78.30
2017-12-31T20:07:39.885Z,78.10
2017-12-31T20:10:06.204Z,78.10
2017-12-31T20:12:32.486Z,78.30
2017-12-31T20:14:58.723Z,78.50
2017-12-31T20:17:25.001Z,78.40
2017-12-31T20:19:51.248Z,78.30
2017-12-31T20:22:17.501Z,78.80
2017-12-31T20:24:43.757Z,78.80
2017-12-31T20:27:10.016Z,79.30
2017-12-31T20:29:36.282Z,79.60
2017-12-31T20:32:02.516Z,79.50
2017-12-31T20:34:28.803Z,79.60
2017-12-31T20:36:55.123Z,79.60
2017-12-31T20:39:22.109Z,79.60
2017-12-31T20:41:49.348Z,79.80
2017-12-31T20:44:15.623Z,79.20
2017-12-31T20:46:41.884Z,79.20
2017-12-31T20:49:08.113Z,78.90
2017-12-31T20:51:34.326Z,78.90
2017-12-31T20:54:00.601Z,78.60
2017-12-31T20:56:26.870Z,78.90
2017-12-31T20:58:53.113Z,78.50
2017-12-31T21:01:20.119Z,78.50
2017-12-31T21:03:46.434Z,78.60
2017-12-31T21:06:12.717Z,78.70
2017-12-31T21:08:39.365Z,79.30
2017-12-31T21:11:06.021Z,78.70
2017-12-31T21:13:32.252Z,78.70
2017-12-31T21:15:58.508Z,79.30
2017-12-31T21:18:24.752Z,79.50
2017-12-31T21:20:51.009Z,79.20
2017-12-31T21:23:18.215Z,79.40
2017-12-31T21:25:44.436Z,79.50
2017-12-31T21:28:10.748Z,79.70
2017-12-31T21:30:36.976Z,80.00
2017-12-31T21:33:03.234Z,80.70
2017-12-31T21:35:29.469Z,81.10
2017-12-31T21:37:55.771Z,81.00
2017-12-31T21:40:22.021Z,80.80
2017-12-31T21:42:48.262Z,80.20
2017-12-31T21:45:14.516Z,80.50
2017-12-31T21:47:41.113Z,81.10
2017-12-31T21:50:07.972Z,81.10
2017-12-31T21:52:34.215Z,81.10
2017-12-31T21:55:00.466Z,81.50
2017-12-31T21:57:27.093Z,82.00
2017-12-31T21:59:53.711Z,81.80
2017-12-31T22:02:20.015Z,81.80
2017-12-31T22:04:46.272Z,81.30
2017-12-31T22:07:12.553Z,81.10
2017-12-31T22:09:38.844Z,82.30
2017-12-31T22:12:05.441Z,82.20
2017-12-31T22:14:31.659Z,82.20
2017-12-31T22:16:57.907Z,81.90
2017-12-31T22:19:24.481Z,81.90
2017-12-31T22:21:50.789Z,82.20
2017-12-31T22:24:17.009Z,81.80
2017-12-31T22:26:43.236Z,81.90
2017-12-31T22:29:09.470Z,81.80
2017-12-31T22:31:35.706Z,81.50
2017-12-31T22:34:01.943Z,81.30
2017-12-31T22:36:28.541Z,81.00
2017-12-31T22:38:54.764Z,81.00
2017-12-31T22:41:21.004Z,81.10
2017-12-31T22:43:47.258Z,81.80
2017-12-31T22:46:13.876Z,82.80
2017-12-31T22:48:40.096Z,82.80
2017-12-31T22:51:06.374Z,82.40
2017-12-31T22:53:32.949Z,82.50
2017-12-31T22:55:59.213Z,82.50
2017-12-31T22:58:25.459Z,82.70
2017-12-31T23:00:52.092Z,82.50
2017-12-31T23:03:18.663Z,82.70
2017-12-31T23:05:44.932Z,82.70
2017-12-31T23:08:11.290Z,82.30
2017-12-31T23:10:38.711Z,82.00
2017-12-31T23:13:04.962Z,82.00
2017-12-31T23:15:31.215Z,82.40
2017-12-31T23:17:57.518Z,82.40
2017-12-31T23:20:23.734Z,83.40
2017-12-31T23:22:49.956Z,82.90
2017-12-31T23:25:17.067Z,82.50
2017-12-31T23:27:43.284Z,83.40
2017-12-31T23:30:09.539Z,84.30
2017-12-31T23:32:35.829Z,83.90
2017-12-31T23:35:02.071Z,83.80
2017-12-31T23:37:28.307Z,83.70
2017-12-31T23:39:54.650Z,83.00
2017-12-31T23:42:20.917Z,83.60
2017-12-31T23:44:47.742Z,83.90
2017-12-31T23:47:14.052Z,84.30
2017-12-31T23:49:40.271Z,84.40
2017-12-31T23:52:06.566Z,85.00
2017-12-31T23:54:33.023Z,85.00
2017-12-31T23:56:59.259Z,84.90
2017-12-31T23:59:25.526Z,84.60
